sensor_id;sensor_type;location;lat;lon;timestamp;P1;durP1;ratioP1;P2;durP2;ratioP2
64597;SDS011;51004;54.692;9.332;2023-02-01T00:00:51;30.88;;;5.88;;
64597;SDS011;51004;54.692;9.332;2023-02-01T00:03:17;33.47;;;6.32;;
64597;SDS011;51004;54.692;9.332;2023-02-01T00:05:43;36.55;;;7.05;;
64597;SDS011;51004;54.692;9.332;2023-02-01T00:08:09;34.47;;;5.40;;
64597;SDS011;51004;54.692;9.332;2023-02-01T00:10:35;39.80;;;7.57;;
64597;SDS011;51004;54.692;9.332;2023-02-01T00:13:01;45.20;;;8.10;;
64597;SDS011;51004;54.692;9.332;2023-02-01T00:15:27;43.22;;;7.00;;
64597;SDS011;51004;54.692;9.332;2023-02-01T00:17:54;24.00;;;5.15;;
64597;SDS011;51004;54.692;9.332;2023-02-01T00:20:20;35.75;;;7.35;;
64597;SDS011;51004;54.692;9.332;2023-02-01T00:22:46;19.13;;;4.25;;
64597;SDS011;51004;54.692;9.332;2023-02-01T00:25:12;12.20;;;2.45;;
64597;SDS011;51004;54.692;9.332;2023-02-01T00:27:38;11.05;;;1.92;;
64597;SDS011;51004;54.692;9.332;2023-02-01T00:30:04;8.18;;;1.83;;
64597;SDS011;51004;54.692;9.332;2023-02-01T00:32:30;7.15;;;1.45;;
64597;SDS011;51004;54.692;9.332;2023-02-01T00:34:56;11.45;;;2.83;;
64597;SDS011;51004;54.692;9.332;2023-02-01T00:37:22;12.63;;;1.80;;
64597;SDS011;51004;54.692;9.332;2023-02-01T00:39:48;17.08;;;3.42;;
64597;SDS011;51004;54.692;9.332;2023-02-01T00:42:15;27.08;;;5.13;;
64597;SDS011;51004;54.692;9.332;2023-02-01T00:44:41;43.25;;;6.57;;
64597;SDS011;51004;54.692;9.332;2023-02-01T00:47:07;29.23;;;6.07;;
64597;SDS011;51004;54.692;9.332;2023-02-01T00:49:33;35.35;;;5.90;;
64597;SDS011;51004;54.692;9.332;2023-02-01T00:51:59;37.17;;;5.43;;
64597;SDS011;51004;54.692;9.332;2023-02-01T00:54:25;31.58;;;4.90;;
64597;SDS011;51004;54.692;9.332;2023-02-01T00:56:51;47.50;;;6.72;;
64597;SDS011;51004;54.692;9.332;2023-02-01T00:59:17;37.20;;;6.25;;
64597;SDS011;51004;54.692;9.332;2023-02-01T01:01:43;42.65;;;6.70;;
64597;SDS011;51004;54.692;9.332;2023-02-01T01:04:09;41.83;;;7.00;;
64597;SDS011;51004;54.692;9.332;2023-02-01T01:06:35;35.15;;;6.57;;
64597;SDS011;51004;54.692;9.332;2023-02-01T01:09:03;47.60;;;9.30;;
64597;SDS011;51004;54.692;9.332;2023-02-01T01:11:31;48.78;;;8.60;;
64597;SDS011;51004;54.692;9.332;2023-02-01T01:13:57;37.45;;;8.57;;
64597;SDS011;51004;54.692;9.332;2023-02-01T01:16:25;45.00;;;6.53;;
64597;SDS011;51004;54.692;9.332;2023-02-01T01:18:51;36.08;;;7.35;;
64597;SDS011;51004;54.692;9.332;2023-02-01T01:21:17;37.55;;;6.70;;
64597;SDS011;51004;54.692;9.332;2023-02-01T01:23:44;32.40;;;6.25;;
64597;SDS011;51004;54.692;9.332;2023-02-01T01:26:12;35.42;;;6.53;;
64597;SDS011;51004;54.692;9.332;2023-02-01T01:28:39;39.05;;;6.90;;
64597;SDS011;51004;54.692;9.332;2023-02-01T01:31:11;31.90;;;6.35;;
64597;SDS011;51004;54.692;9.332;2023-02-01T01:33:38;33.88;;;5.25;;
64597;SDS011;51004;54.692;9.332;2023-02-01T01:36:05;37.80;;;6.07;;
64597;SDS011;51004;54.692;9.332;2023-02-01T01:38:31;40.97;;;6.80;;
64597;SDS011;51004;54.692;9.332;2023-02-01T01:40:57;35.88;;;6.07;;
64597;SDS011;51004;54.692;9.332;2023-02-01T01:43:23;40.28;;;6.55;;
64597;SDS011;51004;54.692;9.332;2023-02-01T01:45:49;31.63;;;5.15;;
64597;SDS011;51004;54.692;9.332;2023-02-01T01:48:17;51.60;;;6.78;;
64597;SDS011;51004;54.692;9.332;2023-02-01T01:50:47;34.25;;;6.35;;
64597;SDS011;51004;54.692;9.332;2023-02-01T01:53:15;33.92;;;5.45;;
64597;SDS011;51004;54.692;9.332;2023-02-01T01:55:42;31.38;;;5.38;;
64597;SDS011;51004;54.692;9.332;2023-02-01T01:58:11;43.05;;;6.93;;
64597;SDS011;51004;54.692;9.332;2023-02-01T02:00:37;50.33;;;8.13;;
64597;SDS011;51004;54.692;9.332;2023-02-01T02:03:24;37.20;;;6.50;;
64597;SDS011;51004;54.692;9.332;2023-02-01T02:05:51;40.40;;;7.55;;
64597;SDS011;51004;54.692;9.332;2023-02-01T02:08:18;40.55;;;6.78;;
64597;SDS011;51004;54.692;9.332;2023-02-01T02:10:46;35.20;;;5.78;;
64597;SDS011;51004;54.692;9.332;2023-02-01T02:13:25;37.22;;;6.78;;
64597;SDS011;51004;54.692;9.332;2023-02-01T02:18:24;38.00;;;7.25;;
64597;SDS011;51004;54.692;9.332;2023-02-01T02:21:07;32.20;;;5.43;;
64597;SDS011;51004;54.692;9.332;2023-02-01T02:44:31;49.33;;;9.52;;
64597;SDS011;51004;54.692;9.332;2023-02-01T02:47:23;44.25;;;7.82;;
64597;SDS011;51004;54.692;9.332;2023-02-01T02:52:48;38.35;;;6.82;;
64597;SDS011;51004;54.692;9.332;2023-02-01T02:55:35;44.08;;;7.38;;
64597;SDS011;51004;54.692;9.332;2023-02-01T02:58:04;43.25;;;8.07;;
64597;SDS011;51004;54.692;9.332;2023-02-01T03:00:49;46.55;;;7.22;;
64597;SDS011;51004;54.692;9.332;2023-02-01T03:03:38;37.30;;;6.28;;
64597;SDS011;51004;54.692;9.332;2023-02-01T03:06:23;42.30;;;6.63;;
64597;SDS011;51004;54.692;9.332;2023-02-01T03:08:50;48.13;;;8.55;;
64597;SDS011;51004;54.692;9.332;2023-02-01T03:11:21;39.85;;;6.05;;
64597;SDS011;51004;54.692;9.332;2023-02-01T03:14:09;31.67;;;5.95;;
64597;SDS011;51004;54.692;9.332;2023-02-01T03:16:40;35.85;;;6.15;;
64597;SDS011;51004;54.692;9.332;2023-02-01T03:19:09;43.75;;;7.13;;
64597;SDS011;51004;54.692;9.332;2023-02-01T03:21:44;36.83;;;7.38;;
64597;SDS011;51004;54.692;9.332;2023-02-01T03:24:16;42.05;;;5.85;;
64597;SDS011;51004;54.692;9.332;2023-02-01T03:26:48;30.60;;;6.88;;
64597;SDS011;51004;54.692;9.332;2023-02-01T03:29:16;43.97;;;7.33;;
64597;SDS011;51004;54.692;9.332;2023-02-01T03:31:43;39.40;;;7.32;;
64597;SDS011;51004;54.692;9.332;2023-02-01T03:34:10;35.47;;;6.53;;
64597;SDS011;51004;54.692;9.332;2023-02-01T03:36:46;42.55;;;6.40;;
64597;SDS011;51004;54.692;9.332;2023-02-01T03:39:19;39.90;;;6.88;;
64597;SDS011;51004;54.692;9.332;2023-02-01T03:41:48;36.97;;;7.13;;
64597;SDS011;51004;54.692;9.332;2023-02-01T03:44:23;47.08;;;6.70;;
64597;SDS011;51004;54.692;9.332;2023-02-01T03:46:58;33.67;;;6.00;;
64597;SDS011;51004;54.692;9.332;2023-02-01T03:49:29;37.78;;;6.55;;
64597;SDS011;51004;54.692;9.332;2023-02-01T03:51:58;36.60;;;6.10;;
64597;SDS011;51004;54.692;9.332;2023-02-01T03:54:24;31.73;;;6.53;;
64597;SDS011;51004;54.692;9.332;2023-02-01T03:56:51;32.35;;;5.97;;
64597;SDS011;51004;54.692;9.332;2023-02-01T03:59:18;29.17;;;5.75;;
64597;SDS011;51004;54.692;9.332;2023-02-01T04:01:43;33.53;;;6.70;;
64597;SDS011;51004;54.692;9.332;2023-02-01T04:04:09;34.45;;;5.00;;
64597;SDS011;51004;54.692;9.332;2023-02-01T04:06:36;37.85;;;7.43;;
64597;SDS011;51004;54.692;9.332;2023-02-01T04:09:02;31.77;;;6.05;;
64597;SDS011;51004;54.692;9.332;2023-02-01T04:11:28;33.28;;;6.07;;
64597;SDS011;51004;54.692;9.332;2023-02-01T04:13:54;37.75;;;6.15;;
64597;SDS011;51004;54.692;9.332;2023-02-01T04:16:20;32.00;;;5.75;;
64597;SDS011;51004;54.692;9.332;2023-02-01T04:18:46;37.40;;;6.47;;
64597;SDS011;51004;54.692;9.332;2023-02-01T04:21:12;39.55;;;6.38;;
64597;SDS011;51004;54.692;9.332;2023-02-01T04:23:38;36.20;;;5.32;;
64597;SDS011;51004;54.692;9.332;2023-02-01T04:26:04;48.70;;;5.63;;
64597;SDS011;51004;54.692;9.332;2023-02-01T04:28:30;31.00;;;5.63;;
64597;SDS011;51004;54.692;9.332;2023-02-01T04:30:57;32.78;;;5.80;;
64597;SDS011;51004;54.692;9.332;2023-02-01T04:33:23;34.05;;;6.25;;
64597;SDS011;51004;54.692;9.332;2023-02-01T04:35:49;33.95;;;5.80;;
64597;SDS011;51004;54.692;9.332;2023-02-01T04:38:15;22.42;;;6.30;;
64597;SDS011;51004;54.692;9.332;2023-02-01T04:40:41;32.58;;;5.53;;
64597;SDS011;51004;54.692;9.332;2023-02-01T04:43:07;30.42;;;4.97;;
64597;SDS011;51004;54.692;9.332;2023-02-01T04:45:33;26.88;;;4.72;;
64597;SDS011;51004;54.692;9.332;2023-02-01T04:47:59;30.88;;;5.65;;
64597;SDS011;51004;54.692;9.332;2023-02-01T04:50:25;24.27;;;4.43;;
64597;SDS011;51004;54.692;9.332;2023-02-01T04:52:51;30.92;;;5.15;;
64597;SDS011;51004;54.692;9.332;2023-02-01T04:55:17;30.17;;;5.45;;
64597;SDS011;51004;54.692;9.332;2023-02-01T04:57:43;30.88;;;4.95;;
64597;SDS011;51004;54.692;9.332;2023-02-01T05:00:10;20.00;;;4.03;;
64597;SDS011;51004;54.692;9.332;2023-02-01T05:02:36;20.83;;;3.67;;
64597;SDS011;51004;54.692;9.332;2023-02-01T05:05:02;17.15;;;3.92;;
64597;SDS011;51004;54.692;9.332;2023-02-01T05:07:28;24.48;;;4.13;;
64597;SDS011;51004;54.692;9.332;2023-02-01T05:09:54;33.88;;;4.82;;
64597;SDS011;51004;54.692;9.332;2023-02-01T05:12:20;15.68;;;3.60;;
64597;SDS011;51004;54.692;9.332;2023-02-01T05:15:05;19.75;;;3.70;;
64597;SDS011;51004;54.692;9.332;2023-02-01T05:17:31;19.73;;;4.20;;
64597;SDS011;51004;54.692;9.332;2023-02-01T05:19:57;18.35;;;3.45;;
64597;SDS011;51004;54.692;9.332;2023-02-01T05:22:23;11.48;;;3.03;;
64597;SDS011;51004;54.692;9.332;2023-02-01T05:24:49;17.70;;;4.13;;
64597;SDS011;51004;54.692;9.332;2023-02-01T05:27:15;17.33;;;3.10;;
64597;SDS011;51004;54.692;9.332;2023-02-01T05:29:41;22.77;;;5.05;;
64597;SDS011;51004;54.692;9.332;2023-02-01T05:32:08;14.55;;;3.17;;
64597;SDS011;51004;54.692;9.332;2023-02-01T05:34:35;23.08;;;4.22;;
64597;SDS011;51004;54.692;9.332;2023-02-01T05:37:02;17.20;;;3.42;;
64597;SDS011;51004;54.692;9.332;2023-02-01T05:39:28;28.42;;;3.92;;
64597;SDS011;51004;54.692;9.332;2023-02-01T05:41:53;24.05;;;4.20;;
64597;SDS011;51004;54.692;9.332;2023-02-01T05:44:19;20.77;;;4.38;;
64597;SDS011;51004;54.692;9.332;2023-02-01T05:46:45;29.25;;;4.95;;
64597;SDS011;51004;54.692;9.332;2023-02-01T05:49:11;30.30;;;4.63;;
64597;SDS011;51004;54.692;9.332;2023-02-01T05:51:37;25.00;;;4.07;;
64597;SDS011;51004;54.692;9.332;2023-02-01T05:54:03;51.28;;;5.70;;
64597;SDS011;51004;54.692;9.332;2023-02-01T05:56:29;36.15;;;5.57;;
64597;SDS011;51004;54.692;9.332;2023-02-01T05:58:55;37.25;;;5.40;;
64597;SDS011;51004;54.692;9.332;2023-02-01T06:01:21;37.00;;;6.50;;
64597;SDS011;51004;54.692;9.332;2023-02-01T06:03:47;31.27;;;5.57;;
64597;SDS011;51004;54.692;9.332;2023-02-01T06:06:13;39.83;;;5.50;;
64597;SDS011;51004;54.692;9.332;2023-02-01T06:08:39;27.55;;;5.30;;
64597;SDS011;51004;54.692;9.332;2023-02-01T06:11:05;32.65;;;5.68;;
64597;SDS011;51004;54.692;9.332;2023-02-01T06:13:32;36.00;;;6.40;;
64597;SDS011;51004;54.692;9.332;2023-02-01T06:15:58;30.70;;;6.10;;
64597;SDS011;51004;54.692;9.332;2023-02-01T06:18:24;31.63;;;5.28;;
64597;SDS011;51004;54.692;9.332;2023-02-01T06:20:56;36.67;;;4.65;;
64597;SDS011;51004;54.692;9.332;2023-02-01T06:23:22;35.05;;;6.03;;
64597;SDS011;51004;54.692;9.332;2023-02-01T06:25:52;36.55;;;5.95;;
64597;SDS011;51004;54.692;9.332;2023-02-01T06:28:18;29.67;;;4.45;;
64597;SDS011;51004;54.692;9.332;2023-02-01T06:30:44;27.95;;;5.25;;
64597;SDS011;51004;54.692;9.332;2023-02-01T06:33:14;30.83;;;5.03;;
64597;SDS011;51004;54.692;9.332;2023-02-01T06:35:41;27.88;;;5.13;;
64597;SDS011;51004;54.692;9.332;2023-02-01T06:38:08;34.05;;;6.18;;
64597;SDS011;51004;54.692;9.332;2023-02-01T06:40:35;31.17;;;6.32;;
64597;SDS011;51004;54.692;9.332;2023-02-01T06:43:01;29.20;;;5.38;;
64597;SDS011;51004;54.692;9.332;2023-02-01T06:45:27;33.50;;;5.97;;
64597;SDS011;51004;54.692;9.332;2023-02-01T06:47:53;45.97;;;7.93;;
64597;SDS011;51004;54.692;9.332;2023-02-01T06:50:19;30.70;;;5.13;;
64597;SDS011;51004;54.692;9.332;2023-02-01T06:52:45;34.88;;;6.00;;
64597;SDS011;51004;54.692;9.332;2023-02-01T06:55:11;27.75;;;6.10;;
64597;SDS011;51004;54.692;9.332;2023-02-01T06:57:38;24.67;;;4.28;;
64597;SDS011;51004;54.692;9.332;2023-02-01T07:00:04;31.33;;;7.13;;
64597;SDS011;51004;54.692;9.332;2023-02-01T07:02:30;33.22;;;5.32;;
64597;SDS011;51004;54.692;9.332;2023-02-01T07:04:56;31.05;;;6.40;;
64597;SDS011;51004;54.692;9.332;2023-02-01T07:07:22;28.00;;;5.25;;
64597;SDS011;51004;54.692;9.332;2023-02-01T07:09:49;32.40;;;6.47;;
64597;SDS011;51004;54.692;9.332;2023-02-01T07:12:15;29.50;;;5.13;;
64597;SDS011;51004;54.692;9.332;2023-02-01T07:14:41;29.38;;;5.85;;
64597;SDS011;51004;54.692;9.332;2023-02-01T07:17:07;31.40;;;4.95;;
64597;SDS011;51004;54.692;9.332;2023-02-01T07:19:33;29.13;;;5.47;;
64597;SDS011;51004;54.692;9.332;2023-02-01T07:21:59;30.95;;;5.82;;
64597;SDS011;51004;54.692;9.332;2023-02-01T07:24:25;28.55;;;4.75;;
64597;SDS011;51004;54.692;9.332;2023-02-01T07:26:51;32.40;;;5.82;;
64597;SDS011;51004;54.692;9.332;2023-02-01T07:29:17;34.40;;;6.13;;
64597;SDS011;51004;54.692;9.332;2023-02-01T07:31:43;25.13;;;4.32;;
64597;SDS011;51004;54.692;9.332;2023-02-01T07:34:09;29.17;;;5.00;;
64597;SDS011;51004;54.692;9.332;2023-02-01T07:36:35;29.42;;;5.88;;
64597;SDS011;51004;54.692;9.332;2023-02-01T07:39:04;35.67;;;5.78;;
64597;SDS011;51004;54.692;9.332;2023-02-01T07:41:30;36.03;;;6.10;;
64597;SDS011;51004;54.692;9.332;2023-02-01T07:43:56;30.15;;;5.68;;
64597;SDS011;51004;54.692;9.332;2023-02-01T07:46:22;26.42;;;4.68;;
64597;SDS011;51004;54.692;9.332;2023-02-01T07:48:48;32.08;;;4.50;;
64597;SDS011;51004;54.692;9.332;2023-02-01T07:51:15;34.83;;;5.95;;
64597;SDS011;51004;54.692;9.332;2023-02-01T07:53:42;27.83;;;4.50;;
64597;SDS011;51004;54.692;9.332;2023-02-01T07:56:15;31.38;;;5.60;;
64597;SDS011;51004;54.692;9.332;2023-02-01T08:01:27;28.73;;;6.95;;
64597;SDS011;51004;54.692;9.332;2023-02-01T08:03:54;30.23;;;5.32;;
64597;SDS011;51004;54.692;9.332;2023-02-01T08:06:21;33.47;;;6.25;;
64597;SDS011;51004;54.692;9.332;2023-02-01T08:08:48;20.35;;;4.22;;
64597;SDS011;51004;54.692;9.332;2023-02-01T08:11:14;27.92;;;3.83;;
64597;SDS011;51004;54.692;9.332;2023-02-01T08:13:41;11.57;;;3.03;;
64597;SDS011;51004;54.692;9.332;2023-02-01T08:16:08;17.80;;;4.30;;
64597;SDS011;51004;54.692;9.332;2023-02-01T08:18:35;17.90;;;3.25;;
64597;SDS011;51004;54.692;9.332;2023-02-01T08:21:03;15.52;;;3.10;;
64597;SDS011;51004;54.692;9.332;2023-02-01T08:23:29;16.63;;;3.70;;
64597;SDS011;51004;54.692;9.332;2023-02-01T08:26:04;25.33;;;4.32;;
64597;SDS011;51004;54.692;9.332;2023-02-01T08:28:30;24.92;;;4.60;;
64597;SDS011;51004;54.692;9.332;2023-02-01T08:30:56;28.05;;;5.15;;
64597;SDS011;51004;54.692;9.332;2023-02-01T08:33:22;26.13;;;3.92;;
64597;SDS011;51004;54.692;9.332;2023-02-01T08:35:48;13.25;;;2.25;;
64597;SDS011;51004;54.692;9.332;2023-02-01T08:38:14;12.10;;;2.38;;
64597;SDS011;51004;54.692;9.332;2023-02-01T08:40:40;17.88;;;3.17;;
64597;SDS011;51004;54.692;9.332;2023-02-01T08:43:06;19.60;;;3.67;;
64597;SDS011;51004;54.692;9.332;2023-02-01T08:45:32;13.70;;;3.50;;
64597;SDS011;51004;54.692;9.332;2023-02-01T08:47:58;17.10;;;3.58;;
64597;SDS011;51004;54.692;9.332;2023-02-01T08:50:24;21.52;;;3.30;;
64597;SDS011;51004;54.692;9.332;2023-02-01T08:52:51;19.63;;;4.30;;
64597;SDS011;51004;54.692;9.332;2023-02-01T08:55:17;24.75;;;3.83;;
64597;SDS011;51004;54.692;9.332;2023-02-01T08:57:44;29.40;;;4.72;;
64597;SDS011;51004;54.692;9.332;2023-02-01T09:00:14;29.35;;;4.40;;
64597;SDS011;51004;54.692;9.332;2023-02-01T09:02:41;29.45;;;4.65;;
64597;SDS011;51004;54.692;9.332;2023-02-01T09:05:07;36.35;;;5.20;;
64597;SDS011;51004;54.692;9.332;2023-02-01T09:07:33;22.33;;;4.22;;
64597;SDS011;51004;54.692;9.332;2023-02-01T09:09:59;31.27;;;5.32;;
64597;SDS011;51004;54.692;9.332;2023-02-01T09:12:27;36.72;;;6.28;;
64597;SDS011;51004;54.692;9.332;2023-02-01T09:14:54;31.20;;;5.45;;
64597;SDS011;51004;54.692;9.332;2023-02-01T09:17:20;28.10;;;4.60;;
64597;SDS011;51004;54.692;9.332;2023-02-01T09:19:46;30.35;;;5.43;;
64597;SDS011;51004;54.692;9.332;2023-02-01T09:22:12;30.55;;;4.95;;
64597;SDS011;51004;54.692;9.332;2023-02-01T09:24:38;31.58;;;5.35;;
64597;SDS011;51004;54.692;9.332;2023-02-01T09:27:03;22.75;;;4.43;;
64597;SDS011;51004;54.692;9.332;2023-02-01T09:29:29;25.30;;;5.65;;
64597;SDS011;51004;54.692;9.332;2023-02-01T09:31:55;32.25;;;5.88;;
64597;SDS011;51004;54.692;9.332;2023-02-01T09:34:22;25.38;;;4.72;;
64597;SDS011;51004;54.692;9.332;2023-02-01T09:36:48;33.15;;;5.85;;
64597;SDS011;51004;54.692;9.332;2023-02-01T09:39:14;37.47;;;5.95;;
64597;SDS011;51004;54.692;9.332;2023-02-01T09:46:53;31.65;;;5.32;;
64597;SDS011;51004;54.692;9.332;2023-02-01T09:49:22;27.90;;;5.45;;
64597;SDS011;51004;54.692;9.332;2023-02-01T09:51:49;40.42;;;5.65;;
64597;SDS011;51004;54.692;9.332;2023-02-01T09:54:17;29.98;;;4.82;;
64597;SDS011;51004;54.692;9.332;2023-02-01T09:56:46;40.22;;;7.65;;
64597;SDS011;51004;54.692;9.332;2023-02-01T09:59:19;30.25;;;5.40;;
64597;SDS011;51004;54.692;9.332;2023-02-01T10:01:47;39.28;;;5.28;;
64597;SDS011;51004;54.692;9.332;2023-02-01T10:04:14;32.38;;;5.40;;
64597;SDS011;51004;54.692;9.332;2023-02-01T10:11:56;30.00;;;6.13;;
64597;SDS011;51004;54.692;9.332;2023-02-01T10:22:07;31.67;;;5.47;;
64597;SDS011;51004;54.692;9.332;2023-02-01T10:24:36;39.53;;;6.15;;
64597;SDS011;51004;54.692;9.332;2023-02-01T10:29:42;33.83;;;6.95;;
64597;SDS011;51004;54.692;9.332;2023-02-01T10:32:13;27.15;;;4.38;;
64597;SDS011;51004;54.692;9.332;2023-02-01T10:34:39;33.03;;;5.30;;
64597;SDS011;51004;54.692;9.332;2023-02-01T10:37:18;28.95;;;6.80;;
64597;SDS011;51004;54.692;9.332;2023-02-01T10:39:47;29.48;;;4.80;;
64597;SDS011;51004;54.692;9.332;2023-02-01T10:42:13;24.55;;;4.03;;
64597;SDS011;51004;54.692;9.332;2023-02-01T10:44:43;29.85;;;4.80;;
64597;SDS011;51004;54.692;9.332;2023-02-01T10:47:12;27.73;;;5.13;;
64597;SDS011;51004;54.692;9.332;2023-02-01T10:52:36;21.45;;;5.18;;
64597;SDS011;51004;54.692;9.332;2023-02-01T10:57:59;33.40;;;5.15;;
64597;SDS011;51004;54.692;9.332;2023-02-01T11:00:26;31.95;;;5.75;;
64597;SDS011;51004;54.692;9.332;2023-02-01T11:02:53;30.42;;;5.40;;
64597;SDS011;51004;54.692;9.332;2023-02-01T11:05:19;29.40;;;4.15;;
64597;SDS011;51004;54.692;9.332;2023-02-01T11:07:51;9.02;;;1.88;;
64597;SDS011;51004;54.692;9.332;2023-02-01T11:10:39;6.85;;;1.92;;
64597;SDS011;51004;54.692;9.332;2023-02-01T11:13:11;6.82;;;1.73;;
64597;SDS011;51004;54.692;9.332;2023-02-01T11:15:39;6.85;;;1.30;;
64597;SDS011;51004;54.692;9.332;2023-02-01T11:18:27;9.88;;;1.70;;
64597;SDS011;51004;54.692;9.332;2023-02-01T11:20:54;5.57;;;1.50;;
64597;SDS011;51004;54.692;9.332;2023-02-01T11:23:27;8.52;;;2.17;;
64597;SDS011;51004;54.692;9.332;2023-02-01T11:25:58;10.10;;;2.30;;
64597;SDS011;51004;54.692;9.332;2023-02-01T11:28:29;8.90;;;1.80;;
64597;SDS011;51004;54.692;9.332;2023-02-01T11:30:56;9.68;;;2.67;;
64597;SDS011;51004;54.692;9.332;2023-02-01T11:33:29;11.85;;;1.60;;
64597;SDS011;51004;54.692;9.332;2023-02-01T11:35:58;9.40;;;1.67;;
64597;SDS011;51004;54.692;9.332;2023-02-01T11:38:29;7.22;;;1.75;;
64597;SDS011;51004;54.692;9.332;2023-02-01T11:41:10;11.27;;;2.28;;
64597;SDS011;51004;54.692;9.332;2023-02-01T11:43:37;7.65;;;1.50;;
64597;SDS011;51004;54.692;9.332;2023-02-01T11:46:03;7.78;;;1.60;;
64597;SDS011;51004;54.692;9.332;2023-02-01T11:48:40;10.50;;;1.92;;
64597;SDS011;51004;54.692;9.332;2023-02-01T11:53:46;19.90;;;3.42;;
64597;SDS011;51004;54.692;9.332;2023-02-01T11:59:00;32.85;;;5.18;;
64597;SDS011;51004;54.692;9.332;2023-02-01T12:01:34;21.65;;;4.07;;
64597;SDS011;51004;54.692;9.332;2023-02-01T12:04:08;40.10;;;5.47;;
64597;SDS011;51004;54.692;9.332;2023-02-01T12:09:11;27.63;;;4.30;;
64597;SDS011;51004;54.692;9.332;2023-02-01T12:11:42;24.35;;;5.18;;
64597;SDS011;51004;54.692;9.332;2023-02-01T12:19:27;21.38;;;3.40;;
64597;SDS011;51004;54.692;9.332;2023-02-01T12:21:58;12.57;;;2.88;;
64597;SDS011;51004;54.692;9.332;2023-02-01T12:34:24;7.65;;;1.60;;
64597;SDS011;51004;54.692;9.332;2023-02-01T12:39:29;7.65;;;1.52;;
64597;SDS011;51004;54.692;9.332;2023-02-01T12:44:35;6.72;;;1.58;;
64597;SDS011;51004;54.692;9.332;2023-02-01T12:47:46;6.55;;;1.50;;
64597;SDS011;51004;54.692;9.332;2023-02-01T12:50:00;6.80;;;1.67;;
64597;SDS011;51004;54.692;9.332;2023-02-01T12:52:38;11.45;;;2.30;;
64597;SDS011;51004;54.692;9.332;2023-02-01T12:57:32;16.15;;;3.97;;
64597;SDS011;51004;54.692;9.332;2023-02-01T13:00:13;19.40;;;3.35;;
64597;SDS011;51004;54.692;9.332;2023-02-01T13:02:52;23.63;;;3.63;;
64597;SDS011;51004;54.692;9.332;2023-02-01T13:05:22;22.35;;;3.60;;
64597;SDS011;51004;54.692;9.332;2023-02-01T13:15:33;38.03;;;5.38;;
64597;SDS011;51004;54.692;9.332;2023-02-01T13:18:02;26.65;;;3.95;;
64597;SDS011;51004;54.692;9.332;2023-02-01T13:20:33;31.35;;;4.45;;
64597;SDS011;51004;54.692;9.332;2023-02-01T13:23:04;31.27;;;4.80;;
64597;SDS011;51004;54.692;9.332;2023-02-01T13:25:55;31.38;;;5.00;;
64597;SDS011;51004;54.692;9.332;2023-02-01T13:43:49;32.42;;;5.35;;
64597;SDS011;51004;54.692;9.332;2023-02-01T13:46:16;34.95;;;5.50;;
64597;SDS011;51004;54.692;9.332;2023-02-01T13:51:11;26.52;;;4.43;;
64597;SDS011;51004;54.692;9.332;2023-02-01T13:53:38;29.83;;;6.45;;
64597;SDS011;51004;54.692;9.332;2023-02-01T13:56:11;31.98;;;5.45;;
64597;SDS011;51004;54.692;9.332;2023-02-01T13:58:39;23.08;;;4.40;;
64597;SDS011;51004;54.692;9.332;2023-02-01T14:03:47;29.33;;;4.65;;
64597;SDS011;51004;54.692;9.332;2023-02-01T14:16:44;33.65;;;5.15;;
64597;SDS011;51004;54.692;9.332;2023-02-01T14:21:47;37.63;;;6.13;;
64597;SDS011;51004;54.692;9.332;2023-02-01T14:24:20;28.10;;;5.13;;
64597;SDS011;51004;54.692;9.332;2023-02-01T14:26:51;28.38;;;5.43;;
64597;SDS011;51004;54.692;9.332;2023-02-01T14:29:37;31.45;;;5.03;;
64597;SDS011;51004;54.692;9.332;2023-02-01T14:32:11;34.10;;;6.20;;
64597;SDS011;51004;54.692;9.332;2023-02-01T14:44:43;38.15;;;5.57;;
64597;SDS011;51004;54.692;9.332;2023-02-01T14:47:11;30.08;;;5.55;;
64597;SDS011;51004;54.692;9.332;2023-02-01T14:50:10;37.47;;;6.32;;
64597;SDS011;51004;54.692;9.332;2023-02-01T14:52:37;42.67;;;6.55;;
64597;SDS011;51004;54.692;9.332;2023-02-01T14:55:11;27.33;;;5.30;;
64597;SDS011;51004;54.692;9.332;2023-02-01T14:57:39;39.92;;;6.57;;
64597;SDS011;51004;54.692;9.332;2023-02-01T15:00:27;36.63;;;6.70;;
64597;SDS011;51004;54.692;9.332;2023-02-01T15:02:53;38.03;;;5.75;;
64597;SDS011;51004;54.692;9.332;2023-02-01T15:05:22;40.47;;;7.35;;
64597;SDS011;51004;54.692;9.332;2023-02-01T15:07:48;50.17;;;7.95;;
64597;SDS011;51004;54.692;9.332;2023-02-01T15:10:15;53.53;;;8.57;;
64597;SDS011;51004;54.692;9.332;2023-02-01T15:12:42;37.13;;;6.57;;
64597;SDS011;51004;54.692;9.332;2023-02-01T15:15:16;33.53;;;6.35;;
64597;SDS011;51004;54.692;9.332;2023-02-01T15:17:49;36.78;;;6.68;;
64597;SDS011;51004;54.692;9.332;2023-02-01T15:20:17;45.88;;;7.10;;
64597;SDS011;51004;54.692;9.332;2023-02-01T15:22:53;34.75;;;7.45;;
64597;SDS011;51004;54.692;9.332;2023-02-01T15:25:21;42.40;;;6.80;;
64597;SDS011;51004;54.692;9.332;2023-02-01T15:27:47;45.80;;;7.82;;
64597;SDS011;51004;54.692;9.332;2023-02-01T15:30:27;37.58;;;7.93;;
64597;SDS011;51004;54.692;9.332;2023-02-01T15:33:04;30.50;;;6.55;;
64597;SDS011;51004;54.692;9.332;2023-02-01T15:35:36;34.70;;;7.18;;
64597;SDS011;51004;54.692;9.332;2023-02-01T15:43:22;19.13;;;3.58;;
64597;SDS011;51004;54.692;9.332;2023-02-01T15:45:48;21.00;;;4.03;;
64597;SDS011;51004;54.692;9.332;2023-02-01T15:48:19;16.83;;;2.70;;
64597;SDS011;51004;54.692;9.332;2023-02-01T15:50:46;19.55;;;4.00;;
64597;SDS011;51004;54.692;9.332;2023-02-01T15:53:18;17.60;;;3.15;;
64597;SDS011;51004;54.692;9.332;2023-02-01T15:55:45;22.92;;;4.30;;
64597;SDS011;51004;54.692;9.332;2023-02-01T15:58:19;29.92;;;5.68;;
64597;SDS011;51004;54.692;9.332;2023-02-01T16:00:50;26.88;;;5.07;;
64597;SDS011;51004;54.692;9.332;2023-02-01T16:03:28;30.77;;;5.65;;
64597;SDS011;51004;54.692;9.332;2023-02-01T16:06:02;28.60;;;5.20;;
64597;SDS011;51004;54.692;9.332;2023-02-01T16:08:29;32.45;;;5.47;;
64597;SDS011;51004;54.692;9.332;2023-02-01T16:13:35;40.25;;;7.03;;
64597;SDS011;51004;54.692;9.332;2023-02-01T16:16:01;37.28;;;6.82;;
64597;SDS011;51004;54.692;9.332;2023-02-01T16:18:28;46.25;;;7.13;;
64597;SDS011;51004;54.692;9.332;2023-02-01T16:20:54;37.22;;;6.45;;
64597;SDS011;51004;54.692;9.332;2023-02-01T16:23:21;36.60;;;6.82;;
64597;SDS011;51004;54.692;9.332;2023-02-01T16:25:47;34.60;;;6.95;;
64597;SDS011;51004;54.692;9.332;2023-02-01T16:28:13;35.05;;;6.60;;
64597;SDS011;51004;54.692;9.332;2023-02-01T16:30:42;34.85;;;7.35;;
64597;SDS011;51004;54.692;9.332;2023-02-01T16:33:10;32.20;;;6.80;;
64597;SDS011;51004;54.692;9.332;2023-02-01T16:35:37;43.72;;;6.63;;
64597;SDS011;51004;54.692;9.332;2023-02-01T16:38:11;35.55;;;6.72;;
64597;SDS011;51004;54.692;9.332;2023-02-01T16:40:41;37.05;;;6.65;;
64597;SDS011;51004;54.692;9.332;2023-02-01T16:43:11;32.33;;;7.55;;
64597;SDS011;51004;54.692;9.332;2023-02-01T16:45:38;33.40;;;5.72;;
64597;SDS011;51004;54.692;9.332;2023-02-01T16:48:06;36.63;;;7.82;;
64597;SDS011;51004;54.692;9.332;2023-02-01T16:50:32;23.98;;;6.43;;
64597;SDS011;51004;54.692;9.332;2023-02-01T16:52:59;33.53;;;5.38;;
64597;SDS011;51004;54.692;9.332;2023-02-01T16:55:25;23.95;;;5.20;;
64597;SDS011;51004;54.692;9.332;2023-02-01T16:57:51;30.60;;;6.32;;
64597;SDS011;51004;54.692;9.332;2023-02-01T17:00:20;26.95;;;5.60;;
64597;SDS011;51004;54.692;9.332;2023-02-01T17:02:46;29.98;;;5.18;;
64597;SDS011;51004;54.692;9.332;2023-02-01T17:05:12;37.78;;;6.57;;
64597;SDS011;51004;54.692;9.332;2023-02-01T17:07:38;37.47;;;6.15;;
64597;SDS011;51004;54.692;9.332;2023-02-01T17:10:15;34.67;;;5.43;;